Empire State — WDE4431 — position and weather

sailwx.info

Track history (hours):
 
Tides and Currents Weather Stations Pressure Air Temp Water Temp Dewpoint Dewpoint Depression Visibility Wind Speed Wind Dir Waves Ship Positions

Empire State

Owner: Crowley Petroleum Services, Jacksonville, FL. More information available from US FCC via Universal Licensing System and Coast Guard Vessel Documentation Center.

Last reported at 2016-Nov-23 20:00 UTC. Time now 2016-Dec-03 21:50 UTC.
Position N 56°00' W 149°06'.
Warning: this ship's position is 10 days out of date.

Length 183 m; draft 9.8 m.

Type: Military. MMSI: 367353080.

Wind from 070 at 11 knots

Barometer 997.0 mb
Air temperature 7.8 ° C
Visibility: greater than 10.8 NM
Dewpoint 3.0 ° C
Water temperature 8.7 ° C

Date/timePositionNaut miles runAvg speedWind from/ knotsBaromVisibWave heightAir tempDewpointWater temp
2016-Nov-23 20:00N 56°00' W 149°06'   070 / 11997.010.8 7.8 3.0 8.7
2016-Nov-19 11:33N 48°31' W 126°18'2311.5
2016-Nov-19 09:33N 48°32' W 125°43'2412.0
2016-Nov-19 07:33N 48°32' W 125°07'2914.3
2016-Nov-19 05:33N 48°26' W 124°25'1514.8
2016-Nov-19 04:33N 48°20' W 124°04'1414.4
2016-Nov-19 03:34N 48°16' W 123°43'1312.7
2016-Nov-19 02:33N 48°12' W 123°25'8 8.2
2016-Nov-19 01:33N 48°13' W 123°13'1313.3
2016-Nov-19 00:33N 48°21' W 122°57'1212.0
2016-Nov-18 23:33N 48°29' W 122°44'23 0.6
2016-Nov-17 12:33N 48°52' W 122°46'4 3.7
2016-Nov-17 11:32N 48°48' W 122°47'3712.5
2016-Nov-17 08:33N 48°15' W 123°11'2110.3
2016-Nov-17 06:33N 48°13' W 123°42'5012.6
2016-Nov-17 02:33N 48°29' W 124°54'61113.0
2016-Nov-15 03:33N 38°17' W 124°46'1513.7
2016-Nov-15 02:27N 38°04' W 124°38'2713.3
2016-Nov-15 00:26N 37°39' W 124°25'1013.3
2016-Nov-14 23:43N 37°30' W 124°20'5513.1
2016-Nov-14 19:33N 36°40' W 123°53'2612.8
2016-Nov-14 17:30N 36°16' W 123°40'1213.0
2016-Nov-14 16:33N 36°05' W 123°34'1313.3
2016-Nov-14 15:33N 35°52' W 123°27'9012.8
2016-Nov-14 08:33N 34°38' W 122°25'3912.8
2016-Nov-14 05:33N 34°15' W 121°48'6512.6
2016-Nov-14 00:23N 33°38' W 120°44'1113.1
2016-Nov-13 23:33N 33°38' W 120°31'1313.1
2016-Nov-13 22:33N 33°38' W 120°15'  
Track history (hours):
 
Tides and Currents Weather Stations Pressure Air Temp Water Temp Dewpoint Dewpoint Depression Visibility Wind Speed Wind Dir Waves Ship Positions

Empire State

Owner: Crowley Petroleum Services, Jacksonville, FL. More information available from US FCC via Universal Licensing System and Coast Guard Vessel Documentation Center.

Last reported at 2016-Nov-23 20:00 UTC. Time now 2016-Dec-03 21:50 UTC.
Position N 56°00' W 149°06'.
Warning: this ship's position is 10 days out of date.

Length 183 m; draft 9.8 m.

Type: Military. MMSI: 367353080.

Wind from 070 at 11 knots

Barometer 997.0 mb
Air temperature 7.8 ° C
Visibility: greater than 10.8 NM
Dewpoint 3.0 ° C
Water temperature 8.7 ° C

Date/timePositionNaut miles runAvg speedWind from/ knotsBaromVisibWave heightAir tempDewpointWater temp
2016-Nov-23 20:00N 56°00' W 149°06'   070 / 11997.010.8 7.8 3.0 8.7
2016-Nov-19 11:33N 48°31' W 126°18'2311.5
2016-Nov-19 09:33N 48°32' W 125°43'2412.0
2016-Nov-19 07:33N 48°32' W 125°07'2914.3
2016-Nov-19 05:33N 48°26' W 124°25'1514.8
2016-Nov-19 04:33N 48°20' W 124°04'1414.4
2016-Nov-19 03:34N 48°16' W 123°43'1312.7
2016-Nov-19 02:33N 48°12' W 123°25'8 8.2
2016-Nov-19 01:33N 48°13' W 123°13'1313.3
2016-Nov-19 00:33N 48°21' W 122°57'1212.0
2016-Nov-18 23:33N 48°29' W 122°44'23 0.6
2016-Nov-17 12:33N 48°52' W 122°46'4 3.7
2016-Nov-17 11:32N 48°48' W 122°47'3712.5
2016-Nov-17 08:33N 48°15' W 123°11'2110.3
2016-Nov-17 06:33N 48°13' W 123°42'5012.6
2016-Nov-17 02:33N 48°29' W 124°54'61113.0
2016-Nov-15 03:33N 38°17' W 124°46'1513.7
2016-Nov-15 02:27N 38°04' W 124°38'2713.3
2016-Nov-15 00:26N 37°39' W 124°25'1013.3
2016-Nov-14 23:43N 37°30' W 124°20'5513.1
2016-Nov-14 19:33N 36°40' W 123°53'2612.8
2016-Nov-14 17:30N 36°16' W 123°40'1213.0
2016-Nov-14 16:33N 36°05' W 123°34'1313.3
2016-Nov-14 15:33N 35°52' W 123°27'9012.8
2016-Nov-14 08:33N 34°38' W 122°25'3912.8
2016-Nov-14 05:33N 34°15' W 121°48'6512.6
2016-Nov-14 00:23N 33°38' W 120°44'1113.1
2016-Nov-13 23:33N 33°38' W 120°31'1313.1
2016-Nov-13 22:33N 33°38' W 120°15'  

Dump ship's entire track history